Moffett Federal Air Field, CA

3:20 PM PDT on October 01, 2014 (GMT -0700)
San Carlos | Change Station
CLOSE
Current Station
Airport
Location: San Carlos,
Elevation: 3 ft
Nearby Weather Stations
Active Advisory: Heat Advisory

Elev 3 ft 37.51 °N, 122.25 °W | Updated 25 minutes ago

Clear
Clear
82 °F
Feels Like 82 °F
N
7
Wind Variable Wind from North

Today
High -- | Low -- °F
--% Chance of Precip.
Yesterday
High -- | Low -- °F
Precip. -- in
7:03 AM 6:51 PM
First Quarter, 51% visible
Pressure 29.88 in
Visibility 10.0 miles
Clouds Clear
Dew Point 41 °F
Humidity 23%
Rainfall 0.00 in
Snow Depth 0 in , 0 in , 0 in
UV 5 out of 12
Pollen 3.60 out of 12
Ozone Good
PM2.5 Good
Flu Activity Not available.
METAR KSQL 012155Z 36006KT 10SM SKC 28/05 A2988

More Conditions Fewer Conditions

Pressure 29.88 in
Visibility 10.0 miles
Clouds Clear
Dew Point 41 °F
Humidity 23%
Rainfall 0.00 in
Snow Depth 0 in , 0 in , 0 in
UV 5 out of 12
Pollen 3.60 out of 12
Ozone Good
PM2.5 Good
Flu Activity Not available.
METAR KSQL 012155Z 36006KT 10SM SKC 28/05 A2988

More Conditions Fewer Conditions

10-Day Weather Forecast

Almanac

Astronomy

Oct. 01, 2014 Rise Set
Actual Time 7:03 AM PDT 6:51 PM PDT
Civil Twilight 6:37 AM PDT 7:17 PM PDT
Nautical Twilight 6:07 AM PDT 7:47 PM PDT
Astronomical Twilight 5:36 AM PDT 8:17 PM PDT
Moon 2:04 PM PDT No Moon Set
Length of Visible Light 12h 39m
Length of Day
11h 47m
Tomorrow will be 2m 22s shorter.
First Quarter, 51% of the Moon is Illuminated
Today
First Quarter
Oct 8
Full
Oct 15
Last Quarter
Oct 23
New
Oct 30
First Quarter

Today's Extremes

State Highs State Lows

Community

WunderPhotos

Upload Photos

1,758,058 photos uploaded!

WunderBlogs® & News

By Dr. Jeff Masters
Director of Meteorology, Weather Underground
By Kari Strenfel
Meteorologist, Weather Underground
By Christopher C. Burt
Weather Historian, Weather Underground
October 1, 2014
October 1, 2014
October 1, 2014

Nearby

Air Quality

  Air Quality AQ Index Pollutant
Yesterday Good
OZONE
Yesterday Good
PM2.5
Current Good
OZONE
Current Good
PM2.5
Wednesday Good
PM2.5
Thursday Moderate
OZONE
Friday Moderate
NO2
Saturday Moderate
PM2.5
Sunday Moderate
PM2.5
Monday Moderate
PM2.5

Snow Depth

Station Depth Elevation
Burnside Lake 0 in 8139 ft
Spratt Creek 0 in 6200 ft
Rubicon #2 0 in 7500 ft
CSS Lab 3 in 6900 ft
Leavitt Meadows 0 in 7200 ft

Earthquake Activity

City Distance Mag. Time & Date
South Dos Palos, California 85 miles 3.0 11:17 AM PDT
2014-10-01
Shandon, California 147 miles 2.9 5:34 PM PDT
2014-09-30
East Foothills, California 15 miles 2.6 3:34 PM PDT
2014-09-30
South Dos Palos, California 85 miles 2.7 3:08 PM PDT
2014-09-30
Minimum magnitude displayed is 2.5.

Coastal Water Temperatures

Place Temperature
No Stations Reporting

Nearby Weather Stations